createdAt,value
2022-10-10T00:00:53.505Z,9.00
2022-10-10T00:03:21.735Z,9.00
2022-10-10T00:05:49.671Z,9.00
2022-10-10T00:08:17.617Z,9.00
2022-10-10T00:10:45.615Z,9.00
2022-10-10T00:13:13.529Z,8.90
2022-10-10T00:15:46.784Z,8.90
2022-10-10T00:18:17.092Z,8.80
2022-10-10T00:20:45.015Z,8.70
2022-10-10T00:23:12.958Z,8.70
2022-10-10T00:25:41.037Z,8.60
2022-10-10T00:28:08.991Z,8.60
2022-10-10T00:30:36.959Z,8.50
2022-10-10T00:33:06.310Z,8.50
2022-10-10T00:35:34.444Z,8.50
2022-10-10T00:38:02.577Z,8.50
2022-10-10T00:40:30.895Z,8.50
2022-10-10T00:42:59.605Z,8.50
2022-10-10T00:45:31.895Z,8.40
2022-10-10T00:48:03.824Z,8.50
2022-10-10T00:50:37.120Z,8.50
2022-10-10T00:53:07.924Z,8.50
2022-10-10T00:55:36.936Z,8.50
2022-10-10T00:58:06.284Z,8.50
2022-10-10T01:00:34.224Z,8.40
2022-10-10T01:03:02.162Z,8.40
2022-10-10T01:05:32.117Z,8.40
2022-10-10T01:08:00.562Z,8.40
2022-10-10T01:10:28.864Z,8.40
2022-10-10T01:13:09.665Z,8.40
2022-10-10T01:15:47.911Z,8.40
2022-10-10T01:18:26.676Z,8.50
2022-10-10T01:21:04.313Z,8.50
2022-10-10T01:24:11.430Z,8.40
2022-10-10T01:27:06.496Z,8.40
2022-10-10T01:29:39.944Z,8.40
2022-10-10T01:32:12.817Z,8.40
2022-10-10T01:34:49.481Z,8.50
2022-10-10T01:37:20.716Z,8.50
2022-10-10T01:39:58.346Z,8.50
2022-10-10T01:42:32.306Z,8.50
2022-10-10T01:45:01.652Z,8.50
2022-10-10T01:47:29.578Z,8.60
2022-10-10T01:50:03.670Z,8.50
2022-10-10T01:52:42.699Z,8.50
2022-10-10T01:55:35.357Z,8.60
2022-10-10T01:58:19.258Z,8.60
2022-10-10T02:00:55.782Z,8.50
2022-10-10T02:03:28.970Z,8.60
2022-10-10T02:06:01.437Z,8.50
2022-10-10T02:08:34.468Z,8.60
2022-10-10T02:11:04.797Z,8.60
2022-10-10T02:13:38.905Z,8.60
2022-10-10T02:16:15.563Z,8.50
2022-10-10T02:18:45.996Z,8.50
2022-10-10T02:21:16.283Z,8.50
2022-10-10T02:23:47.597Z,8.50
2022-10-10T02:26:19.137Z,8.50
2022-10-10T02:28:52.866Z,8.60
2022-10-10T02:31:30.868Z,8.50
2022-10-10T02:34:02.982Z,8.50
2022-10-10T02:36:32.951Z,8.50
2022-10-10T02:39:01.852Z,8.50
2022-10-10T02:41:30.455Z,8.50
2022-10-10T02:43:59.329Z,8.40
2022-10-10T02:46:28.746Z,8.40
2022-10-10T02:48:56.644Z,8.40
2022-10-10T02:51:28.536Z,8.30
2022-10-10T02:53:58.471Z,8.30
2022-10-10T02:56:26.496Z,8.30
2022-10-10T02:58:54.492Z,8.30
2022-10-10T03:01:22.453Z,8.30
2022-10-10T03:03:52.678Z,8.30
2022-10-10T03:06:20.794Z,8.30
2022-10-10T03:08:48.739Z,8.30
2022-10-10T03:11:17.009Z,8.30
2022-10-10T03:13:44.913Z,8.30
2022-10-10T03:16:12.914Z,8.20
2022-10-10T03:18:40.982Z,8.20
2022-10-10T03:21:10.296Z,8.20
2022-10-10T03:23:38.398Z,8.10
2022-10-10T03:26:07.089Z,8.10
2022-10-10T03:28:35.118Z,8.10
2022-10-10T03:31:03.080Z,8.10
2022-10-10T03:33:31.097Z,8.00
2022-10-10T03:35:59.045Z,8.00
2022-10-10T03:38:28.322Z,8.00
2022-10-10T03:40:56.900Z,8.10
2022-10-10T03:43:24.865Z,8.10
2022-10-10T03:45:52.822Z,8.10
2022-10-10T03:48:20.829Z,8.10
2022-10-10T03:50:48.768Z,8.10
2022-10-10T03:53:16.714Z,8.10
2022-10-10T03:55:46.088Z,8.10
2022-10-10T03:58:14.063Z,8.10
2022-10-10T04:00:42.169Z,8.20
2022-10-10T04:03:10.181Z,8.20
2022-10-10T04:05:39.953Z,8.20
2022-10-10T04:08:08.187Z,8.20
2022-10-10T04:10:36.200Z,8.20
2022-10-10T04:13:05.829Z,8.20
2022-10-10T04:15:33.790Z,8.20
2022-10-10T04:18:01.864Z,8.20
2022-10-10T04:20:29.775Z,8.10
2022-10-10T04:22:57.702Z,8.10
2022-10-10T04:25:26.117Z,8.20
2022-10-10T04:27:58.535Z,8.10
2022-10-10T04:30:33.546Z,8.10
2022-10-10T04:33:01.626Z,8.10
2022-10-10T04:35:29.608Z,8.10
2022-10-10T04:37:57.629Z,8.10
2022-10-10T04:40:26.956Z,8.10
2022-10-10T04:42:55.926Z,8.10
2022-10-10T04:45:26.592Z,8.10
2022-10-10T04:47:56.200Z,8.00
2022-10-10T04:50:24.998Z,8.00
2022-10-10T04:52:53.920Z,8.00
2022-10-10T04:55:22.013Z,8.00
2022-10-10T04:57:49.939Z,8.00
2022-10-10T05:00:18.114Z,8.00
2022-10-10T05:02:46.084Z,8.00
2022-10-10T05:05:15.516Z,8.00
2022-10-10T05:07:43.549Z,8.00
2022-10-10T05:10:11.501Z,8.00
2022-10-10T05:12:39.397Z,8.00
2022-10-10T05:15:08.220Z,8.00
2022-10-10T05:17:36.122Z,8.00
2022-10-10T05:20:04.508Z,7.90
2022-10-10T05:22:34.217Z,7.90
2022-10-10T05:25:02.173Z,7.90
2022-10-10T05:27:30.398Z,7.90
2022-10-10T05:29:58.407Z,7.90
2022-10-10T05:32:26.355Z,7.90
2022-10-10T05:34:54.281Z,7.90
2022-10-10T05:37:23.192Z,7.90
2022-10-10T05:39:54.820Z,7.90
2022-10-10T05:42:23.186Z,7.90
2022-10-10T05:44:51.252Z,7.90
2022-10-10T05:47:19.209Z,7.90
2022-10-10T05:49:47.281Z,7.90
2022-10-10T05:52:15.205Z,7.90
2022-10-10T05:54:43.119Z,8.00
2022-10-10T05:57:16.177Z,7.90
2022-10-10T05:59:44.492Z,8.00
2022-10-10T06:02:13.902Z,8.00
2022-10-10T06:04:41.934Z,8.00
2022-10-10T06:07:10.554Z,8.00
2022-10-10T06:09:38.711Z,8.00
2022-10-10T06:12:06.681Z,8.00
2022-10-10T06:14:35.956Z,8.10
2022-10-10T06:17:04.656Z,8.00
2022-10-10T06:19:32.684Z,8.00
2022-10-10T06:22:00.634Z,8.10
2022-10-10T06:24:28.627Z,8.20
2022-10-10T06:26:56.595Z,8.20
2022-10-10T06:29:24.657Z,8.20
2022-10-10T06:31:54.055Z,8.10
2022-10-10T06:34:22.052Z,8.20
2022-10-10T06:36:51.185Z,8.20
2022-10-10T06:39:20.024Z,8.20
2022-10-10T06:41:50.041Z,8.20
2022-10-10T06:44:18.869Z,8.30
2022-10-10T06:46:47.359Z,8.30
2022-10-10T06:49:16.681Z,8.30
2022-10-10T06:51:44.610Z,8.30
2022-10-10T06:54:12.749Z,8.40
2022-10-10T06:56:40.728Z,8.50
2022-10-10T06:59:08.676Z,8.60
2022-10-10T07:01:36.733Z,8.60
2022-10-10T07:04:05.332Z,8.70
2022-10-10T07:06:35.109Z,8.70
2022-10-10T07:09:03.308Z,8.80
2022-10-10T07:11:31.493Z,8.90
2022-10-10T07:13:59.524Z,9.00
2022-10-10T07:16:27.681Z,9.10
2022-10-10T07:18:55.864Z,9.10
2022-10-10T07:21:23.779Z,9.20
2022-10-10T07:23:53.133Z,9.30
2022-10-10T07:26:22.455Z,9.30
2022-10-10T07:28:50.950Z,9.40
2022-10-10T07:31:19.265Z,9.50
2022-10-10T07:33:50.722Z,9.60
2022-10-10T07:36:19.926Z,9.70
2022-10-10T07:38:52.929Z,9.80
2022-10-10T07:41:22.015Z,9.80
2022-10-10T07:43:55.710Z,9.90
2022-10-10T07:46:23.978Z,10.00
2022-10-10T07:48:51.892Z,10.10
2022-10-10T07:51:20.225Z,10.30
2022-10-10T07:53:48.238Z,10.40
2022-10-10T07:56:17.525Z,10.50
2022-10-10T07:58:45.433Z,10.60
2022-10-10T08:01:14.381Z,10.70
2022-10-10T08:03:43.061Z,10.70
2022-10-10T08:06:13.581Z,10.80
2022-10-10T08:08:50.346Z,10.90
2022-10-10T08:11:21.778Z,10.90
2022-10-10T08:13:50.750Z,11.00
2022-10-10T08:16:19.025Z,11.10
2022-10-10T08:18:46.952Z,11.10
2022-10-10T08:21:17.026Z,11.20
2022-10-10T08:23:45.466Z,11.30
2022-10-10T08:26:15.454Z,11.40
2022-10-10T08:28:45.632Z,11.50
2022-10-10T08:31:15.683Z,11.60
2022-10-10T08:33:45.900Z,11.70
2022-10-10T08:36:16.794Z,11.80
2022-10-10T08:38:45.404Z,11.90
2022-10-10T08:41:26.508Z,12.00
2022-10-10T08:44:01.008Z,12.10
2022-10-10T08:46:35.842Z,12.20
2022-10-10T08:49:14.286Z,12.30
2022-10-10T08:51:47.604Z,12.40
2022-10-10T08:54:18.495Z,12.60
2022-10-10T08:56:46.550Z,12.70
2022-10-10T08:59:19.000Z,12.80
2022-10-10T09:02:17.930Z,12.90
2022-10-10T09:04:35.808Z,13.00
2022-10-10T09:07:19.616Z,13.10
2022-10-10T09:09:59.078Z,13.20
2022-10-10T09:12:35.169Z,13.30
2022-10-10T09:15:14.411Z,13.50
2022-10-10T09:17:47.643Z,13.60
2022-10-10T09:20:26.986Z,13.60
2022-10-10T09:23:00.511Z,13.60
2022-10-10T09:25:33.774Z,13.70
2022-10-10T09:28:08.134Z,13.70
2022-10-10T09:30:44.950Z,13.70
2022-10-10T09:33:24.633Z,13.80
2022-10-10T09:35:54.447Z,13.80
2022-10-10T09:38:34.278Z,13.90
2022-10-10T09:41:07.330Z,14.00
2022-10-10T09:43:36.328Z,14.10
2022-10-10T09:46:07.464Z,14.20
2022-10-10T09:48:38.398Z,14.20
2022-10-10T09:51:09.558Z,14.30
2022-10-10T09:53:37.561Z,14.30
2022-10-10T09:56:06.640Z,14.30
2022-10-10T09:58:40.953Z,14.40
2022-10-10T10:01:16.982Z,14.50
2022-10-10T10:03:46.022Z,14.70
2022-10-10T10:06:16.004Z,14.90
2022-10-10T10:08:47.955Z,15.00
2022-10-10T10:11:28.115Z,15.20
2022-10-10T10:13:57.443Z,15.30
2022-10-10T10:16:34.181Z,15.40
2022-10-10T10:19:02.359Z,15.50
2022-10-10T10:21:31.418Z,15.60
2022-10-10T10:24:01.454Z,15.70
2022-10-10T10:26:44.485Z,15.80
2022-10-10T10:29:28.939Z,15.90
2022-10-10T10:32:04.403Z,15.90
2022-10-10T10:34:54.814Z,16.00
2022-10-10T10:37:26.529Z,16.10
2022-10-10T10:40:17.070Z,16.20
2022-10-10T10:43:14.879Z,16.30
2022-10-10T10:45:53.543Z,16.40
2022-10-10T10:48:29.162Z,16.50
2022-10-10T10:51:02.782Z,16.50
2022-10-10T10:53:41.963Z,16.60
2022-10-10T10:56:23.101Z,16.60
2022-10-10T11:02:36.948Z,16.80
2022-10-10T11:05:44.390Z,16.90
2022-10-10T11:08:40.843Z,17.10
2022-10-10T11:11:30.035Z,17.20
2022-10-10T11:14:03.689Z,17.20
2022-10-10T11:16:47.974Z,17.30
2022-10-10T11:19:25.499Z,17.30
2022-10-10T11:21:58.989Z,17.30
2022-10-10T11:24:39.987Z,17.30
2022-10-10T11:27:14.069Z,17.30
2022-10-10T11:29:57.855Z,17.40
2022-10-10T11:32:31.581Z,17.50
2022-10-10T11:35:17.133Z,17.50
2022-10-10T11:37:48.694Z,17.50
2022-10-10T11:40:32.262Z,17.60
2022-10-10T11:43:06.376Z,17.70
2022-10-10T11:45:39.289Z,17.70
2022-10-10T11:48:22.389Z,17.80
2022-10-10T11:50:56.401Z,17.90
2022-10-10T11:53:31.577Z,17.90
2022-10-10T11:56:09.223Z,18.00
2022-10-10T11:58:41.675Z,18.00
2022-10-10T12:01:17.189Z,17.90
2022-10-10T12:03:45.157Z,18.00
2022-10-10T12:06:20.736Z,18.00
2022-10-10T12:08:55.352Z,18.00
2022-10-10T12:11:31.196Z,18.00
2022-10-10T12:14:54.321Z,18.00
2022-10-10T12:18:04.690Z,18.10
2022-10-10T12:20:35.245Z,18.10
2022-10-10T12:23:12.999Z,18.20
2022-10-10T12:25:43.421Z,18.10
2022-10-10T12:28:58.770Z,18.10
2022-10-10T12:31:35.304Z,18.10
2022-10-10T12:34:15.655Z,18.10
2022-10-10T12:36:55.909Z,18.10
2022-10-10T12:39:40.190Z,18.10
2022-10-10T12:42:28.185Z,18.10
2022-10-10T12:44:57.978Z,18.20
2022-10-10T12:48:05.621Z,18.20
2022-10-10T12:50:36.337Z,18.20
2022-10-10T12:53:07.529Z,18.20
2022-10-10T12:55:44.999Z,18.10
2022-10-10T12:58:27.495Z,18.20
2022-10-10T13:01:00.610Z,18.10
2022-10-10T13:03:33.638Z,18.10
2022-10-10T13:06:06.662Z,18.10
2022-10-10T13:08:38.761Z,18.10
2022-10-10T13:11:12.064Z,18.00
2022-10-10T13:13:44.304Z,18.00
2022-10-10T13:16:17.222Z,17.90
2022-10-10T13:18:52.999Z,17.90
2022-10-10T13:21:26.830Z,17.80
2022-10-10T13:24:03.321Z,17.90
2022-10-10T13:26:38.123Z,17.90
2022-10-10T13:29:18.745Z,17.80
2022-10-10T13:31:58.730Z,17.80
2022-10-10T13:34:32.839Z,17.80
2022-10-10T13:37:03.888Z,17.70
2022-10-10T13:39:38.377Z,17.70
2022-10-10T13:42:30.676Z,17.60
2022-10-10T13:45:05.209Z,17.60
2022-10-10T13:47:53.847Z,17.60
2022-10-10T13:50:29.087Z,17.50
2022-10-10T13:53:38.699Z,17.50
2022-10-10T13:56:17.763Z,17.50
2022-10-10T13:58:50.334Z,17.30
2022-10-10T14:02:27.692Z,17.30
2022-10-10T14:05:23.444Z,17.30
2022-10-10T14:07:52.163Z,17.30
2022-10-10T14:10:27.715Z,17.30
2022-10-10T14:13:00.527Z,17.20
2022-10-10T14:15:38.821Z,17.20
2022-10-10T14:18:18.831Z,17.20
2022-10-10T14:20:48.999Z,17.20
2022-10-10T14:23:18.120Z,17.30
2022-10-10T14:25:51.859Z,17.20
2022-10-10T14:28:25.036Z,17.10
2022-10-10T14:30:58.301Z,17.00
2022-10-10T14:33:28.165Z,17.00
2022-10-10T14:36:03.192Z,16.90
2022-10-10T14:38:38.815Z,16.80
2022-10-10T14:41:12.709Z,16.80
2022-10-10T14:43:46.507Z,16.80
2022-10-10T14:46:20.500Z,16.70
2022-10-10T14:49:02.325Z,16.60
2022-10-10T14:51:38.801Z,16.60
2022-10-10T14:54:39.458Z,16.50
2022-10-10T14:58:18.535Z,16.20
2022-10-10T15:00:51.658Z,15.90
2022-10-10T15:03:19.970Z,15.80
2022-10-10T15:05:48.475Z,15.70
2022-10-10T15:08:22.028Z,15.60
2022-10-10T15:10:50.132Z,15.50
2022-10-10T15:13:18.297Z,15.50
2022-10-10T15:15:48.128Z,15.50
2022-10-10T15:18:39.656Z,15.50
2022-10-10T15:21:09.936Z,15.50
2022-10-10T15:23:39.778Z,15.50
2022-10-10T15:26:08.183Z,15.40
2022-10-10T15:28:36.274Z,15.40
2022-10-10T15:31:05.597Z,15.40
2022-10-10T15:33:33.981Z,15.40
2022-10-10T15:36:09.644Z,15.30
2022-10-10T15:38:39.916Z,15.20
2022-10-10T15:41:10.219Z,15.10
2022-10-10T15:43:44.656Z,15.00
2022-10-10T15:46:12.868Z,15.00
2022-10-10T15:48:40.818Z,15.00
2022-10-10T15:51:09.623Z,14.90
2022-10-10T15:53:39.087Z,14.90
2022-10-10T15:56:10.909Z,14.90
2022-10-10T15:58:40.001Z,14.80
2022-10-10T16:01:13.083Z,14.70
2022-10-10T16:03:41.351Z,14.60
2022-10-10T16:06:09.737Z,14.60
2022-10-10T16:08:39.773Z,14.60
2022-10-10T16:11:09.380Z,14.50
2022-10-10T16:13:39.235Z,14.40
2022-10-10T16:16:08.947Z,14.30
2022-10-10T16:18:40.352Z,14.30
2022-10-10T16:21:10.340Z,14.10
2022-10-10T16:23:40.532Z,14.10
2022-10-10T16:26:10.373Z,14.10
2022-10-10T16:28:38.628Z,13.90
2022-10-10T16:31:08.759Z,13.90
2022-10-10T16:33:38.552Z,13.80
2022-10-10T16:36:10.616Z,13.70
2022-10-10T16:38:40.250Z,13.70
2022-10-10T16:41:19.829Z,13.60
2022-10-10T16:43:57.177Z,13.60
2022-10-10T16:46:27.646Z,13.60
2022-10-10T16:48:59.165Z,13.60
2022-10-10T16:51:30.277Z,13.60
2022-10-10T16:54:05.751Z,13.60
2022-10-10T16:56:34.158Z,13.60
2022-10-10T16:59:02.583Z,13.50
2022-10-10T17:01:30.754Z,13.60
2022-10-10T17:04:00.591Z,13.50
2022-10-10T17:06:34.253Z,13.30
2022-10-10T17:09:06.309Z,13.30
2022-10-10T17:11:35.177Z,13.20
2022-10-10T17:14:03.106Z,13.10
2022-10-10T17:17:07.039Z,13.10
2022-10-10T17:19:19.670Z,13.10
2022-10-10T17:21:47.675Z,13.10
2022-10-10T17:24:17.408Z,13.10
2022-10-10T17:26:45.331Z,13.10
2022-10-10T17:29:14.247Z,13.10
2022-10-10T17:31:42.625Z,13.00
2022-10-10T17:34:10.595Z,12.90
2022-10-10T17:36:38.701Z,12.90
2022-10-10T17:39:07.520Z,12.90
2022-10-10T17:41:36.881Z,12.80
2022-10-10T17:44:05.809Z,12.80
2022-10-10T17:46:36.207Z,12.80
2022-10-10T17:49:05.798Z,12.80
2022-10-10T17:51:34.607Z,12.80
2022-10-10T17:54:04.224Z,12.80
2022-10-10T17:56:32.559Z,12.70
2022-10-10T17:59:02.306Z,12.70
2022-10-10T18:01:31.239Z,12.70
2022-10-10T18:03:59.613Z,12.60
2022-10-10T18:06:29.217Z,12.60
2022-10-10T18:08:57.570Z,12.60
2022-10-10T18:11:28.254Z,12.50
2022-10-10T18:14:00.311Z,12.40
2022-10-10T18:16:32.421Z,12.40
2022-10-10T18:19:00.424Z,12.40
2022-10-10T18:21:29.058Z,12.50
2022-10-10T18:23:57.637Z,12.40
2022-10-10T18:26:29.301Z,12.30
2022-10-10T18:28:57.836Z,12.20
2022-10-10T18:31:28.264Z,12.20
2022-10-10T18:33:58.208Z,12.30
2022-10-10T18:36:28.067Z,12.10
2022-10-10T18:38:59.192Z,12.00
2022-10-10T18:41:30.493Z,11.90
2022-10-10T18:43:58.435Z,11.90
2022-10-10T18:46:26.508Z,11.80
2022-10-10T18:48:54.624Z,11.80
2022-10-10T18:51:26.313Z,11.80
2022-10-10T18:53:58.432Z,11.90
2022-10-10T18:56:26.493Z,11.90
2022-10-10T18:58:56.859Z,11.80
2022-10-10T19:01:26.936Z,11.60
2022-10-10T19:03:56.069Z,11.60
2022-10-10T19:06:26.182Z,11.70
2022-10-10T19:08:56.510Z,11.60
2022-10-10T19:11:26.644Z,11.60
2022-10-10T19:13:54.852Z,11.60
2022-10-10T19:16:23.327Z,11.50
2022-10-10T19:18:53.351Z,11.50
2022-10-10T19:21:23.685Z,11.50
2022-10-10T19:23:53.015Z,11.40
2022-10-10T19:26:21.253Z,11.40
2022-10-10T19:28:49.390Z,11.40
2022-10-10T19:31:19.594Z,11.50
2022-10-10T19:33:53.818Z,11.40
2022-10-10T19:36:21.733Z,11.40
2022-10-10T19:38:49.863Z,11.40
2022-10-10T19:41:19.890Z,11.30
2022-10-10T19:43:49.360Z,11.20
2022-10-10T19:46:19.023Z,11.20
2022-10-10T19:48:47.066Z,11.20
2022-10-10T19:51:16.617Z,11.10
2022-10-10T19:53:45.153Z,11.10
2022-10-10T19:56:15.118Z,11.10
2022-10-10T19:58:44.734Z,11.10
2022-10-10T20:01:15.406Z,11.00
2022-10-10T20:03:44.193Z,11.00
2022-10-10T20:06:12.634Z,11.00
2022-10-10T20:08:40.922Z,11.10
2022-10-10T20:11:08.875Z,11.00
2022-10-10T20:13:36.924Z,11.00
2022-10-10T20:16:09.278Z,11.00
2022-10-10T20:18:39.586Z,11.00
2022-10-10T20:21:15.548Z,11.00
2022-10-10T20:23:44.964Z,11.00
2022-10-10T20:26:15.553Z,10.90
2022-10-10T20:28:44.673Z,10.90
2022-10-10T20:31:20.070Z,10.90
2022-10-10T20:33:48.386Z,10.80
2022-10-10T20:36:16.929Z,10.80
2022-10-10T20:38:45.043Z,10.80
2022-10-10T20:41:13.069Z,10.80
2022-10-10T20:43:40.974Z,10.80
2022-10-10T20:46:11.456Z,10.80
2022-10-10T20:48:41.121Z,10.70
2022-10-10T20:51:11.664Z,10.70
2022-10-10T20:53:41.735Z,10.70
2022-10-10T21:13:42.861Z,10.50
2022-10-10T21:16:12.597Z,10.50
2022-10-10T21:18:41.229Z,10.50
2022-10-10T21:21:09.604Z,10.40
2022-10-10T21:23:39.727Z,10.40
2022-10-10T21:58:23.909Z,10.00
2022-10-10T22:00:53.240Z,10.10
2022-10-10T22:03:21.159Z,10.10
2022-10-10T22:05:49.182Z,10.10
2022-10-10T22:08:17.116Z,10.00
2022-10-10T22:10:45.517Z,10.00
2022-10-10T22:13:13.528Z,10.00
2022-10-10T22:15:41.551Z,10.00
2022-10-10T22:18:10.809Z,10.00
2022-10-10T22:20:38.752Z,9.90
2022-10-10T22:23:06.678Z,9.90
2022-10-10T22:25:34.563Z,9.90
2022-10-10T22:28:06.067Z,9.90
2022-10-10T22:30:34.341Z,9.90
2022-10-10T22:33:02.562Z,9.90
2022-10-10T22:35:32.273Z,9.80
2022-10-10T22:38:01.910Z,9.80
2022-10-10T22:40:30.358Z,9.80
2022-10-10T22:42:58.830Z,9.80
2022-10-10T22:45:26.929Z,9.80
2022-10-10T22:47:54.832Z,9.80
2022-10-10T22:50:22.839Z,9.80
2022-10-10T22:52:52.078Z,9.70
2022-10-10T22:55:20.110Z,9.70
2022-10-10T22:57:48.596Z,9.70
2022-10-10T23:00:17.958Z,9.60
2022-10-10T23:02:45.868Z,9.60
2022-10-10T23:05:13.928Z,9.60
2022-10-10T23:07:41.869Z,9.70
2022-10-10T23:10:11.442Z,9.70
2022-10-10T23:12:39.512Z,9.70
2022-10-10T23:15:08.252Z,9.60
2022-10-10T23:17:36.459Z,9.60
2022-10-10T23:20:05.610Z,9.60
2022-10-10T23:22:33.540Z,9.60
2022-10-10T23:25:01.441Z,9.60
2022-10-10T23:27:30.831Z,9.60
2022-10-10T23:29:58.737Z,9.50
2022-10-10T23:32:29.241Z,9.50
2022-10-10T23:34:57.373Z,9.40
2022-10-10T23:37:25.559Z,9.30
2022-10-10T23:39:53.526Z,9.30
2022-10-10T23:42:21.529Z,9.30
2022-10-10T23:44:50.814Z,9.30
2022-10-10T23:47:18.816Z,9.30
2022-10-10T23:49:46.925Z,9.30
2022-10-10T23:52:14.828Z,9.30
2022-10-10T23:54:42.929Z,9.30
2022-10-10T23:57:10.994Z,9.30
2022-10-10T23:59:38.958Z,9.30
